Time;durP1;ratioP1;P1;durP2;ratioP2;P2;SDS_P1;SDS_P2;PMS_P1;PMS_P2;Temp;Humidity;BMP_temperature;BMP_pressure;BME280_temperature;BME280_humidity;BME280_pressure;Samples;Min_cycle;Max_cycle;Signal;HPM_P1;HPM_P2
2022/05/20 00:00:22;;;;;;;2.10;2.00;;;19.70;72.70;;;;;;590556;243;26674;-71
2022/05/20 00:02:48;;;;;;;2.12;2.03;;;19.70;73.10;;;;;;590459;243;27331;-71
2022/05/20 00:05:16;;;;;;;2.35;2.00;;;19.60;74.10;;;;;;592164;239;26637;-69
2022/05/20 00:07:44;;;;;;;4.12;2.08;;;19.60;74.00;;;;;;595145;239;26678;-69
2022/05/20 00:10:11;;;;;;;5.07;1.90;;;19.60;74.40;;;;;;593091;242;26880;-75
2022/05/20 00:12:39;;;;;;;3.42;2.22;;;19.60;74.80;;;;;;593287;242;26607;-69
2022/05/20 00:15:07;;;;;;;2.85;2.20;;;19.50;75.10;;;;;;593400;242;26851;-69
2022/05/20 00:17:34;;;;;;;4.80;2.10;;;19.50;75.50;;;;;;593032;239;26631;-69
2022/05/20 00:20:01;;;;;;;2.20;2.00;;;19.40;75.80;;;;;;593628;240;26839;-69
2022/05/20 00:22:28;;;;;;;2.30;1.95;;;19.40;76.50;;;;;;594608;239;26592;-69
2022/05/20 00:27:28;;;;;;;3.03;2.17;;;19.30;77.40;;;;;;590565;243;26613;-70
2022/05/20 00:29:57;;;;;;;2.83;1.80;;;19.20;78.30;;;;;;595109;240;26677;-69
2022/05/20 00:32:24;;;;;;;1.62;1.60;;;19.20;78.30;;;;;;591261;242;26610;-69
2022/05/20 00:34:52;;;;;;;3.12;1.90;;;19.10;79.30;;;;;;593299;242;26680;-69
2022/05/20 00:37:20;;;;;;;1.85;1.75;;;19.10;79.90;;;;;;580269;248;26626;-69
2022/05/20 00:39:49;;;;;;;1.70;1.60;;;19.10;80.40;;;;;;593540;241;26650;-69
2022/05/20 00:42:16;;;;;;;2.03;1.92;;;19.00;80.30;;;;;;583227;246;26876;-69
2022/05/20 00:44:43;;;;;;;3.12;2.22;;;19.00;80.80;;;;;;580167;248;26658;-69
2022/05/20 00:47:11;;;;;;;1.90;1.80;;;19.00;81.50;;;;;;595110;240;26880;-69
2022/05/20 00:49:37;;;;;;;2.58;2.15;;;18.90;81.90;;;;;;594494;242;26606;-69
2022/05/20 00:52:05;;;;;;;2.17;1.95;;;18.90;82.20;;;;;;583943;246;26913;-69
2022/05/20 00:54:36;;;;;;;2.42;1.73;;;18.80;82.70;;;;;;580950;247;26939;-69
2022/05/20 00:57:04;;;;;;;2.22;2.03;;;18.80;83.20;;;;;;593767;242;27331;-69
2022/05/20 00:59:32;;;;;;;2.00;1.90;;;18.70;84.20;;;;;;593938;242;26649;-69
2022/05/20 01:02:00;;;;;;;2.03;1.60;;;18.70;85.10;;;;;;580780;243;26654;-69
2022/05/20 01:04:27;;;;;;;1.80;1.70;;;18.60;84.60;;;;;;592727;242;26707;-69
2022/05/20 01:06:54;;;;;;;1.90;1.80;;;18.60;85.10;;;;;;592616;243;26693;-69
2022/05/20 01:09:22;;;;;;;2.17;1.90;;;18.60;86.20;;;;;;590776;243;26861;-69
2022/05/20 01:11:49;;;;;;;1.95;1.80;;;18.50;86.00;;;;;;590748;243;26905;-69
2022/05/20 01:14:19;;;;;;;2.30;2.10;;;18.50;86.70;;;;;;590734;243;26705;-69
2022/05/20 01:16:47;;;;;;;2.65;1.70;;;18.40;87.30;;;;;;593793;242;26598;-69
2022/05/20 01:19:15;;;;;;;1.90;1.80;;;18.30;89.20;;;;;;580466;248;26588;-69
2022/05/20 01:21:42;;;;;;;4.28;1.95;;;18.30;88.60;;;;;;579754;248;26638;-69
2022/05/20 01:24:09;;;;;;;1.67;1.58;;;18.30;89.30;;;;;;594527;242;26646;-69
2022/05/20 01:26:37;;;;;;;1.83;1.73;;;18.20;90.40;;;;;;594564;242;27260;-69
2022/05/20 01:29:04;;;;;;;2.33;1.90;;;18.20;90.40;;;;;;594577;242;26811;-69
2022/05/20 01:31:31;;;;;;;1.90;1.62;;;18.10;90.70;;;;;;594499;242;26602;-69
2022/05/20 01:33:59;;;;;;;2.12;2.03;;;18.10;91.20;;;;;;594526;236;26849;-69
2022/05/20 01:36:26;;;;;;;1.87;1.80;;;18.00;91.60;;;;;;594573;240;26620;-69
2022/05/20 01:38:53;;;;;;;4.32;1.90;;;18.00;92.10;;;;;;594558;242;26605;-69
2022/05/20 01:41:37;;;;;;;2.08;1.77;;;17.90;92.40;;;;;;594501;240;26974;-69
2022/05/20 01:44:20;;;;;;;2.25;1.70;;;17.90;92.80;;;;;;593259;242;26654;-69
2022/05/20 01:46:49;;;;;;;1.80;1.70;;;17.90;93.20;;;;;;594325;242;26856;-69
2022/05/20 01:49:17;;;;;;;2.00;1.90;;;17.80;93.60;;;;;;594305;242;26597;-69
2022/05/20 01:51:50;;;;;;;1.70;1.60;;;17.80;93.90;;;;;;594648;242;26593;-69
2022/05/20 01:54:49;;;;;;;2.35;2.00;;;17.80;94.10;;;;;;594812;242;26618;-69
2022/05/20 01:57:32;;;;;;;1.90;1.77;;;17.70;94.30;;;;;;589824;239;26588;-69
2022/05/20 02:00:01;;;;;;;2.17;1.98;;;17.70;94.60;;;;;;596065;241;26903;-69
2022/05/20 02:02:29;;;;;;;1.87;1.77;;;17.70;94.90;;;;;;595002;241;26642;-69
2022/05/20 02:04:58;;;;;;;1.60;1.50;;;17.70;95.30;;;;;;595084;242;26609;-69
2022/05/20 02:07:25;;;;;;;2.80;1.90;;;17.70;95.20;;;;;;594744;242;26894;-69
2022/05/20 02:10:04;;;;;;;2.12;1.73;;;17.70;95.30;;;;;;595012;240;26646;-69
2022/05/20 02:12:33;;;;;;;2.35;2.15;;;17.70;95.40;;;;;;594408;242;27350;-69
2022/05/20 02:15:01;;;;;;;1.73;1.62;;;17.70;95.50;;;;;;594765;242;26630;-69
2022/05/20 02:17:29;;;;;;;1.98;1.87;;;17.70;95.70;;;;;;594773;240;26612;-69
2022/05/20 02:19:57;;;;;;;2.37;1.90;;;17.70;95.80;;;;;;594504;242;26635;-69
2022/05/20 02:22:24;;;;;;;2.50;1.87;;;17.70;95.80;;;;;;594609;242;26612;-69
2022/05/20 02:24:52;;;;;;;2.37;2.10;;;17.70;95.90;;;;;;594734;241;26926;-69
2022/05/20 02:27:20;;;;;;;2.28;1.90;;;17.70;96.00;;;;;;594837;240;26646;-69
2022/05/20 02:30:00;;;;;;;1.92;1.83;;;17.70;96.20;;;;;;594514;242;26610;-69
2022/05/20 02:32:28;;;;;;;2.20;2.08;;;17.70;96.20;;;;;;594747;240;26861;-69
2022/05/20 02:34:56;;;;;;;2.50;2.30;;;17.80;96.40;;;;;;594566;240;26583;-69
2022/05/20 02:37:25;;;;;;;2.42;2.33;;;17.80;96.20;;;;;;594644;240;26847;-69
2022/05/20 02:39:53;;;;;;;2.42;2.00;;;17.70;96.10;;;;;;594500;240;26574;-69
2022/05/20 02:42:20;;;;;;;2.58;2.37;;;17.70;96.10;;;;;;594505;240;26605;-69
2022/05/20 02:44:48;;;;;;;3.53;2.40;;;17.80;96.30;;;;;;594548;240;26708;-69
2022/05/20 02:47:16;;;;;;;2.12;1.87;;;17.60;96.50;;;;;;594474;240;26628;-69
2022/05/20 02:49:43;;;;;;;2.90;2.00;;;17.50;96.80;;;;;;594386;240;26614;-69
2022/05/20 02:52:11;;;;;;;2.30;2.10;;;17.50;97.30;;;;;;594380;242;26606;-69
2022/05/20 02:54:39;;;;;;;2.25;2.05;;;17.50;97.50;;;;;;594408;240;26659;-69
2022/05/20 02:57:07;;;;;;;2.20;2.10;;;17.50;97.50;;;;;;594565;242;26889;-69
2022/05/20 03:04:40;;;;;;;3.12;2.33;;;17.60;97.60;;;;;;594548;242;26637;-69
2022/05/20 03:07:07;;;;;;;4.07;1.90;;;17.60;97.80;;;;;;594809;242;26589;-69
2022/05/20 03:09:35;;;;;;;2.40;2.20;;;17.50;97.90;;;;;;596044;239;26592;-69
2022/05/20 03:12:02;;;;;;;2.30;2.20;;;17.60;98.10;;;;;;596062;241;26854;-69
2022/05/20 03:14:31;;;;;;;2.28;2.05;;;17.70;98.00;;;;;;595781;241;26604;-69
2022/05/20 03:16:59;;;;;;;4.25;2.20;;;17.70;97.80;;;;;;595631;242;26586;-69
2022/05/20 03:19:30;;;;;;;2.12;2.03;;;17.70;97.80;;;;;;595455;240;26621;-69
2022/05/20 03:21:53;;;;;;;2.42;2.33;;;17.80;97.80;;;;;;594894;242;26648;-69
2022/05/20 03:24:21;;;;;;;2.37;2.17;;;17.80;97.70;;;;;;595125;242;26638;-68
2022/05/20 03:26:48;;;;;;;2.37;2.28;;;17.80;97.60;;;;;;594931;242;26920;-69
2022/05/20 03:29:15;;;;;;;2.33;1.98;;;17.80;97.80;;;;;;594795;242;26614;-69
2022/05/20 03:31:42;;;;;;;3.25;2.35;;;17.80;97.50;;;;;;594697;240;27516;-69
2022/05/20 03:34:09;;;;;;;2.67;2.42;;;17.80;97.10;;;;;;594701;241;26864;-69
2022/05/20 03:36:37;;;;;;;3.78;2.37;;;17.90;96.90;;;;;;594748;240;26861;-69
2022/05/20 03:39:04;;;;;;;2.65;2.45;;;17.80;96.90;;;;;;594840;240;26826;-69
2022/05/20 03:41:31;;;;;;;2.20;2.05;;;17.90;97.00;;;;;;594782;240;26610;-69
2022/05/20 03:43:59;;;;;;;3.20;2.58;;;17.90;97.10;;;;;;594790;240;26911;-69
2022/05/20 03:46:26;;;;;;;2.60;2.40;;;17.90;97.00;;;;;;594571;240;26616;-69
2022/05/20 03:48:54;;;;;;;2.20;2.00;;;17.90;97.10;;;;;;594639;240;26574;-69
2022/05/20 03:51:21;;;;;;;3.42;2.00;;;17.90;97.10;;;;;;594591;242;26613;-69
2022/05/20 03:53:49;;;;;;;2.17;2.08;;;18.00;97.10;;;;;;594549;237;26868;-69
2022/05/20 03:56:16;;;;;;;2.50;2.30;;;18.00;97.00;;;;;;594567;242;26571;-69
2022/05/20 03:58:43;;;;;;;2.10;2.00;;;18.00;97.00;;;;;;594568;242;26923;-69
2022/05/20 04:03:43;;;;;;;2.20;2.10;;;18.00;96.70;;;;;;594518;242;26639;-69
2022/05/20 04:06:11;;;;;;;2.60;2.40;;;18.10;96.20;;;;;;594566;240;26854;-69
2022/05/20 04:08:38;;;;;;;2.30;2.20;;;18.10;96.30;;;;;;594532;240;26836;-69
2022/05/20 04:11:06;;;;;;;2.42;2.33;;;18.10;96.00;;;;;;594515;240;26626;-69
2022/05/20 04:13:33;;;;;;;2.50;2.30;;;18.10;96.10;;;;;;594884;240;26851;-69
2022/05/20 04:16:01;;;;;;;2.92;2.65;;;18.10;95.90;;;;;;594896;242;26593;-69
2022/05/20 04:18:29;;;;;;;2.47;2.28;;;18.10;96.10;;;;;;594767;240;26838;-69
2022/05/20 04:20:55;;;;;;;2.53;2.37;;;18.20;96.20;;;;;;595567;236;26604;-70
2022/05/20 04:23:22;;;;;;;2.45;2.30;;;18.20;96.30;;;;;;595748;241;26890;-69
2022/05/20 04:25:50;;;;;;;2.35;2.20;;;18.20;96.70;;;;;;595323;241;26606;-70
2022/05/20 04:28:17;;;;;;;2.30;2.20;;;18.10;96.50;;;;;;595290;240;27341;-69
2022/05/20 04:30:45;;;;;;;2.40;2.20;;;18.20;96.40;;;;;;595110;240;26593;-69
2022/05/20 04:33:13;;;;;;;2.28;2.10;;;18.20;96.00;;;;;;595045;237;26658;-70
2022/05/20 04:35:41;;;;;;;2.72;2.53;;;18.30;95.90;;;;;;595146;242;26645;-70
2022/05/20 04:38:09;;;;;;;2.42;2.25;;;18.30;96.00;;;;;;595070;241;26651;-69
2022/05/20 04:40:36;;;;;;;2.33;2.22;;;18.20;96.00;;;;;;594850;242;26617;-69
2022/05/20 04:48:09;;;;;;;2.40;2.30;;;18.30;96.10;;;;;;594810;240;26602;-69
2022/05/20 04:50:37;;;;;;;2.90;2.40;;;18.40;96.00;;;;;;594807;242;26620;-69
2022/05/20 04:53:05;;;;;;;2.70;2.30;;;18.50;95.90;;;;;;594788;242;26639;-69
2022/05/20 04:55:32;;;;;;;2.25;2.15;;;18.50;95.90;;;;;;594835;240;26609;-69
2022/05/20 04:57:59;;;;;;;2.60;2.50;;;18.60;95.60;;;;;;594520;240;26882;-69
2022/05/20 05:00:26;;;;;;;4.35;2.12;;;18.60;95.40;;;;;;594502;242;26594;-69
2022/05/20 05:02:54;;;;;;;3.15;2.47;;;18.80;95.10;;;;;;594461;240;26880;-69
2022/05/20 05:05:21;;;;;;;2.60;2.25;;;18.70;94.80;;;;;;594547;241;26618;-69
2022/05/20 05:07:49;;;;;;;2.55;2.35;;;18.90;94.70;;;;;;594506;240;26613;-69
2022/05/20 05:10:15;;;;;;;2.47;2.28;;;19.10;94.30;;;;;;594441;242;26619;-69
2022/05/20 05:12:43;;;;;;;2.40;2.30;;;19.20;93.60;;;;;;594476;240;26657;-69
2022/05/20 05:15:12;;;;;;;2.60;2.40;;;19.10;93.60;;;;;;594413;240;26621;-69
2022/05/20 05:20:15;;;;;;;2.60;2.40;;;19.10;94.00;;;;;;594545;240;26617;-69
2022/05/20 05:22:42;;;;;;;3.10;2.30;;;19.10;94.00;;;;;;594412;242;26986;-75
2022/05/20 05:25:10;;;;;;;2.90;2.62;;;19.20;93.50;;;;;;594536;242;26593;-75
2022/05/20 05:27:37;;;;;;;2.55;2.20;;;19.20;93.50;;;;;;594484;240;26606;-75
2022/05/20 05:30:06;;;;;;;2.42;2.33;;;19.20;93.10;;;;;;594534;240;26597;-76
2022/05/20 05:32:34;;;;;;;2.20;2.00;;;19.20;93.10;;;;;;595582;240;26597;-76
2022/05/20 05:35:01;;;;;;;2.10;2.00;;;19.30;92.90;;;;;;595723;241;26945;-75
2022/05/20 05:37:28;;;;;;;2.60;2.50;;;19.30;93.00;;;;;;595491;236;26619;-75
2022/05/20 05:39:55;;;;;;;2.25;2.15;;;19.20;93.00;;;;;;595366;242;27271;-75
2022/05/20 05:42:22;;;;;;;2.92;2.70;;;19.10;93.00;;;;;;595051;241;26664;-75
2022/05/20 05:44:49;;;;;;;3.05;2.50;;;19.40;92.80;;;;;;595120;241;26680;-76
2022/05/20 05:47:18;;;;;;;2.65;2.47;;;19.80;92.10;;;;;;594934;242;26680;-75
2022/05/20 05:49:45;;;;;;;2.58;2.42;;;19.80;92.10;;;;;;594994;242;26735;-76
2022/05/20 05:52:13;;;;;;;2.83;2.62;;;19.60;92.10;;;;;;594803;242;26601;-76
2022/05/20 05:54:40;;;;;;;2.42;2.33;;;19.80;92.20;;;;;;594848;241;26951;-76
2022/05/20 05:57:08;;;;;;;2.70;2.50;;;19.70;92.00;;;;;;594828;242;26635;-76
2022/05/20 05:59:37;;;;;;;2.47;2.28;;;20.20;91.30;;;;;;594782;242;26612;-76
2022/05/20 06:02:04;;;;;;;2.90;2.30;;;20.10;91.20;;;;;;594741;240;26600;-75
2022/05/20 06:04:31;;;;;;;2.33;2.22;;;20.10;91.10;;;;;;594803;240;26627;-76
2022/05/20 06:06:58;;;;;;;2.55;2.15;;;20.20;90.80;;;;;;594864;240;26612;-75
2022/05/20 06:09:26;;;;;;;2.70;2.50;;;20.00;90.90;;;;;;594535;242;26622;-76
2022/05/20 06:11:54;;;;;;;2.45;2.15;;;19.90;91.00;;;;;;594501;240;26606;-76
2022/05/20 06:14:22;;;;;;;2.75;2.50;;;20.00;90.50;;;;;;594507;242;26634;-76
2022/05/20 06:16:50;;;;;;;3.12;2.22;;;20.10;90.50;;;;;;594504;242;26661;-76
2022/05/20 06:19:17;;;;;;;2.60;2.50;;;20.00;90.30;;;;;;594497;240;26630;-76
2022/05/20 06:21:44;;;;;;;2.17;2.00;;;20.10;90.10;;;;;;594486;242;26605;-76
2022/05/20 06:24:12;;;;;;;2.70;2.50;;;20.10;87.80;;;;;;594481;242;26892;-76
2022/05/20 06:26:41;;;;;;;2.78;2.58;;;20.10;87.60;;;;;;594533;242;26610;-76
2022/05/20 06:29:06;;;;;;;3.20;2.20;;;20.10;86.20;;;;;;594540;242;26951;-76
2022/05/20 06:31:33;;;;;;;2.72;2.53;;;19.90;86.40;;;;;;594600;242;26612;-75
2022/05/20 06:34:00;;;;;;;2.45;2.25;;;19.50;85.40;;;;;;594506;240;26883;-75
2022/05/20 06:41:34;;;;;;;2.85;2.30;;;19.70;85.20;;;;;;594505;240;26861;-76
2022/05/20 06:44:02;;;;;;;2.70;2.50;;;19.90;85.00;;;;;;595484;240;26644;-76
2022/05/20 06:46:29;;;;;;;2.35;2.20;;;19.90;85.00;;;;;;595674;240;26860;-76
2022/05/20 06:48:56;;;;;;;2.28;2.17;;;20.20;85.20;;;;;;595536;241;26602;-76
2022/05/20 06:51:24;;;;;;;2.65;2.45;;;20.10;84.40;;;;;;595326;240;26873;-76
2022/05/20 06:53:52;;;;;;;2.67;2.50;;;19.90;85.20;;;;;;595062;242;26677;-75
2022/05/20 06:56:18;;;;;;;2.70;2.50;;;20.10;85.50;;;;;;595065;240;26871;-75
2022/05/20 06:58:45;;;;;;;3.17;2.40;;;20.20;84.30;;;;;;595055;240;26661;-75
2022/05/20 07:01:13;;;;;;;2.58;2.17;;;20.20;85.10;;;;;;595058;240;26637;-75
2022/05/20 07:03:40;;;;;;;2.83;2.62;;;20.20;83.70;;;;;;594732;240;27117;-75
2022/05/20 07:06:08;;;;;;;2.60;2.40;;;20.40;83.00;;;;;;594798;240;26610;-76
2022/05/20 07:08:36;;;;;;;2.53;2.40;;;20.60;82.00;;;;;;594687;242;26605;-76
2022/05/20 07:11:04;;;;;;;2.60;2.37;;;20.70;79.70;;;;;;594814;240;26614;-75
2022/05/20 07:13:32;;;;;;;3.00;2.70;;;20.70;78.60;;;;;;593979;239;26690;-75
2022/05/20 07:15:59;;;;;;;2.30;2.10;;;20.70;78.60;;;;;;595728;239;26904;-75
2022/05/20 07:18:26;;;;;;;2.50;2.30;;;21.00;78.30;;;;;;593342;239;26650;-76
2022/05/20 07:20:59;;;;;;;2.42;2.33;;;21.30;76.90;;;;;;594956;236;26852;-75
2022/05/20 07:23:29;;;;;;;3.72;2.40;;;21.40;75.40;;;;;;597281;239;26689;-74
2022/05/20 07:25:57;;;;;;;2.58;2.37;;;21.20;75.20;;;;;;604545;235;26615;-71
2022/05/20 07:28:24;;;;;;;3.25;2.25;;;21.10;74.40;;;;;;605303;234;26641;-72
2022/05/20 07:30:52;;;;;;;2.47;2.28;;;20.90;74.40;;;;;;603131;237;26596;-72
2022/05/20 07:33:20;;;;;;;2.60;2.10;;;20.70;73.40;;;;;;603570;236;26647;-73
2022/05/20 07:35:48;;;;;;;3.62;2.10;;;20.80;73.50;;;;;;604524;236;26625;-72
2022/05/20 07:38:15;;;;;;;3.70;2.50;;;20.80;73.30;;;;;;607575;235;26674;-73
2022/05/20 07:40:43;;;;;;;3.75;2.20;;;21.20;73.20;;;;;;603915;236;26642;-72
2022/05/20 07:43:10;;;;;;;3.37;2.42;;;21.20;72.90;;;;;;604013;234;26881;-72
2022/05/20 07:45:37;;;;;;;2.83;2.22;;;21.10;72.20;;;;;;603962;235;26642;-72
2022/05/20 07:48:05;;;;;;;5.78;2.30;;;21.30;71.80;;;;;;604099;236;26960;-72
2022/05/20 07:50:32;;;;;;;4.93;2.33;;;21.30;70.90;;;;;;603951;235;26642;-72
2022/05/20 07:55:33;;;;;;;2.55;2.37;;;21.60;69.30;;;;;;606909;234;26650;-71
2022/05/20 07:58:00;;;;;;;2.80;2.60;;;21.40;69.40;;;;;;606224;234;26660;-71
2022/05/20 08:00:27;;;;;;;3.42;2.10;;;21.20;70.20;;;;;;606245;234;26858;-71
2022/05/20 08:02:55;;;;;;;2.15;2.05;;;21.10;70.30;;;;;;603633;234;26676;-70
2022/05/20 08:05:21;;;;;;;3.03;2.35;;;21.30;69.50;;;;;;606173;234;26831;-70
2022/05/20 08:07:49;;;;;;;5.85;1.83;;;21.40;69.30;;;;;;605177;237;26643;-69
2022/05/20 08:10:16;;;;;;;2.83;2.45;;;21.50;68.00;;;;;;603399;235;26905;-67
2022/05/20 08:12:43;;;;;;;2.30;2.10;;;21.40;67.20;;;;;;603740;237;26632;-67
2022/05/20 08:15:10;;;;;;;2.35;2.03;;;21.50;66.30;;;;;;602477;237;26837;-68
2022/05/20 08:17:40;;;;;;;4.05;2.42;;;21.50;65.80;;;;;;605599;236;27166;-68
2022/05/20 08:20:07;;;;;;;2.58;2.37;;;21.30;67.10;;;;;;608231;236;26622;-67
2022/05/20 08:22:33;;;;;;;1.90;1.77;;;21.50;66.70;;;;;;603523;238;26575;-68
2022/05/20 08:25:00;;;;;;;3.00;1.95;;;21.70;65.10;;;;;;604854;237;26821;-69
2022/05/20 08:27:27;;;;;;;1.70;1.60;;;21.80;65.00;;;;;;604841;238;26579;-70
2022/05/20 08:29:55;;;;;;;3.62;2.03;;;21.80;65.00;;;;;;604053;237;26815;-70
2022/05/20 08:32:23;;;;;;;2.45;2.28;;;21.90;66.10;;;;;;602871;238;26577;-69
2022/05/20 08:34:50;;;;;;;4.35;2.30;;;21.80;65.80;;;;;;602432;238;26637;-72
2022/05/20 08:37:18;;;;;;;2.37;2.03;;;21.90;63.40;;;;;;604086;238;26624;-70
2022/05/20 08:39:46;;;;;;;2.30;2.08;;;21.70;62.50;;;;;;602096;237;26638;-71
2022/05/20 08:42:15;;;;;;;4.43;2.17;;;21.30;63.20;;;;;;603307;238;26592;-70
2022/05/20 08:44:42;;;;;;;3.00;2.28;;;21.30;63.20;;;;;;601424;239;26636;-77
2022/05/20 08:47:18;;;;;;;3.65;2.33;;;21.20;65.20;;;;;;603960;237;26600;-75
2022/05/20 08:49:45;;;;;;;4.37;2.47;;;21.10;65.00;;;;;;608146;236;26842;-75
2022/05/20 08:52:12;;;;;;;2.15;1.95;;;21.10;64.40;;;;;;604745;236;26624;-75
2022/05/20 08:54:40;;;;;;;2.28;2.10;;;21.40;64.10;;;;;;607917;235;26889;-73
2022/05/20 08:57:12;;;;;;;2.65;2.45;;;21.60;63.70;;;;;;602193;236;26645;-76
2022/05/20 08:59:40;;;;;;;3.28;2.22;;;21.60;62.90;;;;;;607204;235;27384;-75
2022/05/20 09:02:08;;;;;;;2.78;2.42;;;21.70;63.30;;;;;;610962;235;26638;-73
2022/05/20 09:04:36;;;;;;;4.55;2.05;;;21.80;61.80;;;;;;603344;235;26587;-73
2022/05/20 09:07:05;;;;;;;2.90;2.17;;;21.70;61.10;;;;;;605317;235;26606;-74
2022/05/20 09:09:42;;;;;;;3.75;2.35;;;21.70;61.10;;;;;;603278;237;26836;-73
2022/05/20 09:12:09;;;;;;;3.25;2.10;;;21.70;61.50;;;;;;604279;237;26888;-73
2022/05/20 09:17:10;;;;;;;2.22;2.03;;;22.00;61.20;;;;;;603464;235;26851;-71
2022/05/20 09:19:37;;;;;;;1.90;1.80;;;22.00;61.20;;;;;;605753;235;26859;-72
2022/05/20 09:22:08;;;;;;;3.50;1.98;;;21.90;59.70;;;;;;606558;236;26641;-72
2022/05/20 09:24:36;;;;;;;2.28;2.05;;;22.00;59.80;;;;;;606283;235;26598;-71
2022/05/20 09:27:04;;;;;;;2.37;2.17;;;22.20;59.50;;;;;;604918;237;26603;-74
2022/05/20 09:29:37;;;;;;;1.85;1.75;;;22.30;57.90;;;;;;604525;232;26601;-74
2022/05/20 09:32:07;;;;;;;2.80;1.70;;;22.30;58.00;;;;;;602774;237;26612;-73
2022/05/20 09:34:35;;;;;;;2.20;2.00;;;22.30;58.00;;;;;;602862;238;26605;-71
2022/05/20 09:37:06;;;;;;;1.90;1.80;;;22.20;57.60;;;;;;602943;235;26590;-76
2022/05/20 09:39:36;;;;;;;2.20;2.10;;;22.30;57.70;;;;;;600828;238;26634;-73
2022/05/20 09:42:10;;;;;;;2.00;1.90;;;22.20;57.70;;;;;;603680;238;26784;-73
2022/05/20 09:44:37;;;;;;;2.65;1.98;;;22.20;57.40;;;;;;603154;238;26696;-71
2022/05/20 09:47:08;;;;;;;2.12;1.92;;;22.40;57.60;;;;;;602187;238;26642;-74
2022/05/20 09:49:37;;;;;;;2.00;1.77;;;22.30;57.10;;;;;;601626;236;26645;-71
2022/05/20 09:52:04;;;;;;;2.67;1.73;;;22.30;57.40;;;;;;604882;235;26583;-73
2022/05/20 09:54:34;;;;;;;1.70;1.60;;;22.40;57.30;;;;;;603073;238;26930;-73
2022/05/20 09:57:10;;;;;;;2.80;1.90;;;22.20;57.40;;;;;;609919;235;26657;-71
2022/05/20 09:59:59;;;;;;;2.15;1.87;;;22.20;57.40;;;;;;605280;236;26588;-71
2022/05/20 10:02:29;;;;;;;1.80;1.70;;;22.30;55.50;;;;;;605529;236;26590;-71
2022/05/20 10:04:57;;;;;;;2.75;2.00;;;22.40;55.40;;;;;;601485;237;26635;-71
2022/05/20 10:07:53;;;;;;;2.28;2.08;;;22.50;54.90;;;;;;608373;236;26572;-74
2022/05/20 10:10:38;;;;;;;1.85;1.75;;;22.70;54.00;;;;;;610010;236;26891;-71
2022/05/20 10:13:06;;;;;;;3.83;1.92;;;22.60;54.80;;;;;;603133;236;26980;-73
2022/05/20 10:15:39;;;;;;;2.10;1.95;;;22.60;54.40;;;;;;602353;236;26907;-73
2022/05/20 10:18:08;;;;;;;2.22;2.08;;;22.70;54.50;;;;;;610050;233;26584;-75
2022/05/20 10:20:37;;;;;;;3.60;2.90;;;22.70;54.30;;;;;;610705;235;27203;-72
2022/05/20 10:23:29;;;;;;;17.75;5.18;;;22.60;54.70;;;;;;604308;235;26613;-76
2022/05/20 10:25:59;;;;;;;17.15;4.90;;;22.70;54.20;;;;;;602734;237;26786;-72
2022/05/20 10:33:33;;;;;;;5.47;2.50;;;22.60;53.50;;;;;;611549;234;26643;-73
2022/05/20 10:36:09;;;;;;;8.13;3.80;;;22.70;52.40;;;;;;604147;237;26677;-75
2022/05/20 10:38:50;;;;;;;7.40;3.80;;;22.90;52.50;;;;;;601818;237;26586;-73
2022/05/20 10:41:34;;;;;;;4.47;3.50;;;23.10;51.70;;;;;;608754;236;26629;-75
2022/05/20 10:49:38;;;;;;;6.90;2.95;;;22.90;51.30;;;;;;601692;238;26590;-74
2022/05/20 10:52:06;;;;;;;24.90;11.88;;;23.10;51.50;;;;;;607255;233;26578;-76
2022/05/20 10:54:36;;;;;;;33.38;14.15;;;23.20;51.00;;;;;;602755;238;26603;-71
2022/05/20 10:57:21;;;;;;;36.97;17.00;;;23.20;51.40;;;;;;602642;236;26637;-72
2022/05/20 10:59:54;;;;;;;24.37;13.02;;;23.20;51.00;;;;;;609848;235;26630;-71
2022/05/20 11:02:32;;;;;;;38.70;16.90;;;23.40;50.90;;;;;;605818;236;26595;-70
2022/05/20 11:05:02;;;;;;;21.95;10.60;;;23.60;50.70;;;;;;603940;238;26613;-72
2022/05/20 11:07:35;;;;;;;24.02;9.95;;;23.60;50.90;;;;;;608950;236;26580;-74
2022/05/20 11:10:10;;;;;;;26.10;10.45;;;23.60;50.40;;;;;;602827;238;26615;-74
2022/05/20 11:12:52;;;;;;;26.98;11.02;;;23.70;50.40;;;;;;607844;235;26563;-74
2022/05/20 11:15:22;;;;;;;24.77;10.27;;;23.70;50.40;;;;;;606443;236;26655;-73
2022/05/20 11:18:01;;;;;;;22.13;10.80;;;23.50;50.90;;;;;;601648;238;26622;-74
2022/05/20 11:20:50;;;;;;;23.35;9.65;;;23.50;50.60;;;;;;606808;236;26629;-75
2022/05/20 11:23:37;;;;;;;16.58;9.43;;;23.50;50.50;;;;;;604280;236;26606;-69
2022/05/20 11:26:08;;;;;;;104.70;22.40;;;23.60;50.40;;;;;;605067;236;26801;-71
2022/05/20 11:28:41;;;;;;;111.68;29.05;;;23.40;50.20;;;;;;604775;236;26660;-72
2022/05/20 11:31:16;;;;;;;386.75;52.28;;;23.40;50.50;;;;;;604611;237;26860;-71
2022/05/20 11:33:54;;;;;;;654.50;68.00;;;23.40;50.30;;;;;;609174;235;26911;-70
2022/05/20 11:36:24;;;;;;;71.47;29.27;;;23.70;51.20;;;;;;605103;237;26808;-72
2022/05/20 11:39:13;;;;;;;97.57;30.27;;;23.80;51.30;;;;;;613998;234;26654;-75
2022/05/20 11:41:48;;;;;;;30.67;14.20;;;24.10;51.70;;;;;;600959;234;26673;-73
2022/05/20 11:44:18;;;;;;;63.47;24.05;;;24.00;51.60;;;;;;614428;234;26614;-74
2022/05/20 11:46:53;;;;;;;55.65;20.15;;;24.10;51.50;;;;;;613713;234;26592;-75
2022/05/20 11:49:23;;;;;;;13.27;6.57;;;24.00;51.60;;;;;;613736;234;26794;-74
2022/05/20 11:52:00;;;;;;;48.40;18.08;;;24.20;51.80;;;;;;613557;234;26591;-72
2022/05/20 11:54:29;;;;;;;15.32;8.32;;;24.40;51.70;;;;;;614490;234;26606;-73
2022/05/20 11:56:58;;;;;;;6.05;4.32;;;24.50;51.70;;;;;;614311;234;26580;-75
2022/05/20 11:59:28;;;;;;;13.62;6.28;;;24.60;49.90;;;;;;614437;234;26587;-74
2022/05/20 12:01:55;;;;;;;15.93;8.25;;;24.50;49.80;;;;;;614493;234;26944;-74
2022/05/20 12:04:22;;;;;;;24.92;10.02;;;24.70;50.40;;;;;;614858;234;26589;-74
2022/05/20 12:06:51;;;;;;;28.30;10.90;;;24.90;50.70;;;;;;614724;234;26822;-73
2022/05/20 12:09:28;;;;;;;10.73;5.68;;;25.00;50.90;;;;;;614722;234;26831;-73
2022/05/20 12:12:07;;;;;;;16.17;7.75;;;25.10;50.30;;;;;;614575;234;26858;-74
2022/05/20 12:14:40;;;;;;;5.43;3.53;;;25.30;50.40;;;;;;614659;234;26627;-73
2022/05/20 12:17:08;;;;;;;15.40;7.53;;;25.50;49.20;;;;;;613519;234;26589;-73
2022/05/20 12:24:40;;;;;;;13.68;6.25;;;26.20;47.20;;;;;;610112;235;26599;-74
2022/05/20 12:27:10;;;;;;;8.02;4.30;;;26.10;47.50;;;;;;610021;236;26540;-72
2022/05/20 12:29:46;;;;;;;11.55;5.75;;;26.60;46.40;;;;;;610041;236;26570;-73
2022/05/20 12:32:29;;;;;;;3.83;2.97;;;26.60;46.40;;;;;;609832;236;26577;-73
2022/05/20 12:35:02;;;;;;;8.68;4.78;;;26.60;44.20;;;;;;610025;236;26784;-73
2022/05/20 12:37:41;;;;;;;8.73;5.15;;;26.90;43.70;;;;;;609901;236;26550;-73
2022/05/20 12:40:39;;;;;;;11.27;5.35;;;27.20;43.80;;;;;;609981;235;26590;-73
2022/05/20 12:43:06;;;;;;;13.00;5.62;;;27.20;43.70;;;;;;607185;235;26880;-73
2022/05/20 12:45:49;;;;;;;2.72;2.47;;;27.50;42.90;;;;;;611014;235;26584;-73
2022/05/20 12:48:17;;;;;;;4.10;3.08;;;27.90;41.90;;;;;;610596;235;26583;-73
2022/05/20 12:50:44;;;;;;;2.50;2.30;;;28.40;39.80;;;;;;610595;235;26580;-73
2022/05/20 12:53:12;;;;;;;7.93;4.70;;;28.70;39.70;;;;;;610492;235;26577;-73
2022/05/20 12:55:40;;;;;;;9.65;4.47;;;29.40;40.10;;;;;;610428;235;26556;-74
2022/05/20 12:58:07;;;;;;;7.30;4.62;;;29.40;40.00;;;;;;610387;236;26580;-73
2022/05/20 13:00:37;;;;;;;8.80;4.78;;;29.60;38.80;;;;;;610225;236;26631;-74
2022/05/20 13:03:08;;;;;;;4.00;2.92;;;30.40;36.50;;;;;;610057;236;26652;-73
2022/05/20 13:05:34;;;;;;;7.97;4.22;;;30.40;36.60;;;;;;610032;236;26629;-74
2022/05/20 13:08:01;;;;;;;8.10;4.80;;;30.40;36.60;;;;;;610052;236;26840;-74
2022/05/20 13:10:37;;;;;;;4.28;3.80;;;31.00;37.40;;;;;;610141;236;26615;-73
2022/05/20 13:13:06;;;;;;;4.82;3.95;;;31.30;39.10;;;;;;610191;236;26687;-73
2022/05/20 13:15:41;;;;;;;4.82;3.42;;;31.60;33.90;;;;;;610317;236;26660;-73
2022/05/20 13:18:11;;;;;;;6.12;3.90;;;31.60;33.90;;;;;;610356;235;26567;-73
2022/05/20 13:20:36;;;;;;;6.25;4.05;;;31.80;34.60;;;;;;609872;236;26800;-73
2022/05/20 13:23:03;;;;;;;5.72;3.42;;;31.30;34.00;;;;;;610177;235;26585;-73
2022/05/20 13:25:30;;;;;;;6.22;3.60;;;31.40;35.30;;;;;;610284;236;26564;-72
2022/05/20 13:27:59;;;;;;;4.72;3.95;;;32.20;32.50;;;;;;610308;235;26549;-73
2022/05/20 13:30:27;;;;;;;3.60;2.87;;;32.20;32.50;;;;;;610258;236;26832;-64
2022/05/20 13:32:54;;;;;;;3.58;2.90;;;32.80;32.60;;;;;;610137;236;26580;-64
2022/05/20 13:35:21;;;;;;;4.22;3.22;;;33.40;31.30;;;;;;609624;236;26568;-65
2022/05/20 13:37:50;;;;;;;6.15;3.40;;;34.00;31.20;;;;;;610240;236;26601;-65
2022/05/20 13:40:34;;;;;;;5.03;2.72;;;33.20;31.00;;;;;;610242;236;26572;-66